createdAt,value
2022-08-02T00:00:15.993Z,100128.59
2022-08-02T00:02:44.424Z,100131.81
2022-08-02T00:05:12.676Z,100127.59
2022-08-02T00:07:41.461Z,100127.88
2022-08-02T00:10:11.040Z,100132.25
2022-08-02T00:12:38.851Z,100128.59
2022-08-02T00:15:08.021Z,100128.56
2022-08-02T00:17:37.148Z,100133.91
2022-08-02T00:20:06.415Z,100138.47
2022-08-02T00:22:34.140Z,100130.53
2022-08-02T00:25:01.799Z,100135.84
2022-08-02T00:27:29.465Z,100135.75
2022-08-02T00:29:57.195Z,100123.56
2022-08-02T00:32:24.856Z,100128.94
2022-08-02T00:34:53.800Z,100132.50
2022-08-02T00:37:21.447Z,100136.16
2022-08-02T00:39:49.129Z,100137.22
2022-08-02T00:42:16.952Z,100138.16
2022-08-02T00:44:44.604Z,100136.50
2022-08-02T00:47:14.976Z,100136.63
2022-08-02T00:49:47.634Z,100135.81
2022-08-02T00:52:16.584Z,100140.25
2022-08-02T00:54:44.351Z,100142.06
2022-08-02T00:57:12.309Z,100133.06
2022-08-02T00:59:41.819Z,100144.47
2022-08-02T01:02:10.086Z,100133.28
2022-08-02T01:04:38.048Z,100147.28
2022-08-02T01:07:12.176Z,100147.06
2022-08-02T01:09:42.963Z,100155.84
2022-08-02T01:12:11.667Z,100151.38
2022-08-02T01:14:41.501Z,100162.72
2022-08-02T01:17:13.266Z,100167.16
2022-08-02T01:19:50.362Z,100168.09
2022-08-02T01:23:00.721Z,100168.13
2022-08-02T01:25:54.671Z,100175.06
2022-08-02T01:28:37.153Z,100175.00
2022-08-02T01:31:13.754Z,100168.75
2022-08-02T01:33:46.994Z,100184.38
2022-08-02T01:36:19.739Z,100174.69
2022-08-02T01:38:49.995Z,100169.47
2022-08-02T01:41:20.707Z,100177.28
2022-08-02T01:43:54.599Z,100172.84
2022-08-02T01:46:23.252Z,100177.06
2022-08-02T01:48:54.187Z,100176.16
2022-08-02T01:51:43.873Z,100173.69
2022-08-02T01:54:16.478Z,100172.81
2022-08-02T01:56:45.572Z,100172.88
2022-08-02T01:59:19.526Z,100158.81
2022-08-02T02:01:50.385Z,100157.16
2022-08-02T02:04:19.212Z,100155.63
2022-08-02T02:06:48.528Z,100160.03
2022-08-02T02:09:17.436Z,100155.84
2022-08-02T02:12:14.715Z,100153.41
2022-08-02T02:14:37.778Z,100159.63
2022-08-02T02:17:07.480Z,100164.00
2022-08-02T02:19:37.892Z,100159.59
2022-08-02T02:22:06.146Z,100154.41
2022-08-02T02:24:35.337Z,100156.03
2022-08-02T02:27:05.683Z,100149.84
2022-08-02T02:29:35.233Z,100150.69
2022-08-02T02:32:07.076Z,100148.09
2022-08-02T02:34:38.673Z,100141.94
2022-08-02T02:37:12.657Z,100140.19
2022-08-02T02:39:42.815Z,100143.63
2022-08-02T02:42:14.789Z,100141.88
2022-08-02T02:44:43.643Z,100145.41
2022-08-02T02:47:14.093Z,100148.03
2022-08-02T02:49:43.981Z,100141.94
2022-08-02T02:52:14.436Z,100141.00
2022-08-02T02:54:43.735Z,100149.75
2022-08-02T02:57:12.650Z,100144.56
2022-08-02T02:59:49.418Z,100150.63
2022-08-02T03:02:20.252Z,100148.88
2022-08-02T03:04:56.931Z,100143.59
2022-08-02T03:07:26.147Z,100147.91
2022-08-02T03:09:54.912Z,100145.28
2022-08-02T03:12:28.783Z,100147.09
2022-08-02T03:14:59.313Z,100151.44
2022-08-02T03:17:38.524Z,100157.66
2022-08-02T03:20:10.375Z,100156.88
2022-08-02T03:22:38.049Z,100165.66
2022-08-02T03:25:06.695Z,100160.47
2022-08-02T03:27:34.426Z,100168.28
2022-08-02T03:30:02.081Z,100169.09
2022-08-02T03:32:31.266Z,100166.47
2022-08-02T03:34:58.881Z,100162.31
2022-08-02T03:37:28.126Z,100161.59
2022-08-02T03:39:55.954Z,100158.13
2022-08-02T03:42:24.057Z,100163.31
2022-08-02T03:44:52.688Z,100169.56
2022-08-02T03:47:21.009Z,100176.78
2022-08-02T03:49:51.337Z,100178.59
2022-08-02T03:52:19.222Z,100179.53
2022-08-02T03:54:46.868Z,100181.34
2022-08-02T03:57:14.788Z,100176.28
2022-08-02T03:59:43.180Z,100184.16
2022-08-02T04:02:11.583Z,100183.34
2022-08-02T04:04:39.612Z,100169.53
2022-08-02T04:07:08.617Z,100177.44
2022-08-02T04:09:36.310Z,100185.34
2022-08-02T04:12:04.197Z,100185.38
2022-08-02T04:14:36.479Z,100185.44
2022-08-02T04:17:08.494Z,100191.56
2022-08-02T04:19:39.900Z,100193.34
2022-08-02T04:22:14.941Z,100188.97
2022-08-02T04:24:47.180Z,100189.00
2022-08-02T04:27:51.077Z,100183.78
2022-08-02T04:30:10.152Z,100191.59
2022-08-02T04:32:39.275Z,100192.50
2022-08-02T04:35:23.503Z,100190.72
2022-08-02T04:38:08.271Z,100181.19
2022-08-02T04:40:38.700Z,100194.22
2022-08-02T04:43:06.465Z,100186.41
2022-08-02T04:45:34.472Z,100183.81
2022-08-02T04:48:06.122Z,100188.19
2022-08-02T04:50:34.485Z,100187.31
2022-08-02T04:53:03.496Z,100193.34
2022-08-02T04:55:31.124Z,100189.78
2022-08-02T04:57:59.485Z,100192.28
2022-08-02T05:00:28.513Z,100193.94
2022-08-02T05:02:57.092Z,100190.41
2022-08-02T05:05:24.770Z,100192.13
2022-08-02T05:07:52.935Z,100189.44
2022-08-02T05:10:22.656Z,100200.69
2022-08-02T05:12:50.464Z,100203.25
2022-08-02T05:15:18.547Z,100202.38
2022-08-02T05:17:48.132Z,100204.03
2022-08-02T05:20:16.865Z,100206.59
2022-08-02T05:22:44.798Z,100200.34
2022-08-02T05:25:13.199Z,100202.81
2022-08-02T05:27:43.576Z,100200.88
2022-08-02T05:30:11.936Z,100193.03
2022-08-02T05:32:46.856Z,100196.47
2022-08-02T05:35:14.772Z,100198.16
2022-08-02T05:37:43.097Z,100195.38
2022-08-02T05:40:13.150Z,100194.38
2022-08-02T05:42:43.037Z,100199.38
2022-08-02T05:45:11.452Z,100207.97
2022-08-02T05:47:39.571Z,100209.66
2022-08-02T05:50:09.536Z,100206.91
2022-08-02T05:52:45.375Z,100205.09
2022-08-02T05:55:18.835Z,100212.94
2022-08-02T05:57:53.808Z,100219.91
2022-08-02T06:00:22.422Z,100217.22
2022-08-02T06:03:05.446Z,100208.41
2022-08-02T06:05:36.130Z,100215.25
2022-08-02T06:08:08.312Z,100216.03
2022-08-02T06:10:38.503Z,100218.50
2022-08-02T06:13:14.401Z,100220.16
2022-08-02T06:15:53.623Z,100215.75
2022-08-02T06:18:28.050Z,100208.75
2022-08-02T06:20:58.273Z,100213.03
2022-08-02T06:23:27.462Z,100211.97
2022-08-02T06:25:55.039Z,100205.69
2022-08-02T06:28:24.786Z,100202.88
2022-08-02T06:30:52.465Z,100201.84
2022-08-02T06:33:20.276Z,100213.09
2022-08-02T06:35:52.901Z,100212.97
2022-08-02T06:38:25.091Z,100214.50
2022-08-02T06:40:57.808Z,100207.38
2022-08-02T06:43:35.837Z,100211.63
2022-08-02T06:46:38.055Z,100214.25
2022-08-02T06:48:55.022Z,100222.91
2022-08-02T06:51:23.018Z,100219.22
2022-08-02T06:53:50.651Z,100202.38
2022-08-02T06:56:19.227Z,100210.00
2022-08-02T06:58:48.180Z,100208.91
2022-08-02T07:01:15.968Z,100217.47
2022-08-02T07:03:43.780Z,100212.97
2022-08-02T07:06:11.541Z,100213.69
2022-08-02T07:08:39.957Z,100210.06
2022-08-02T07:11:08.640Z,100215.16
2022-08-02T07:13:39.850Z,100215.84
2022-08-02T07:16:09.073Z,100210.75
2022-08-02T07:18:36.756Z,100209.91
2022-08-02T07:21:06.081Z,100206.38
2022-08-02T07:23:36.522Z,100208.22
2022-08-02T07:26:05.821Z,100208.44
2022-08-02T07:28:33.694Z,100217.38
2022-08-02T07:31:01.345Z,100225.09
2022-08-02T07:33:38.041Z,100223.13
2022-08-02T07:36:09.641Z,100229.75
2022-08-02T07:38:39.876Z,100227.72
2022-08-02T07:41:08.709Z,100231.69
2022-08-02T07:43:36.357Z,100226.06
2022-08-02T07:46:04.014Z,100226.03
2022-08-02T07:48:33.477Z,100223.69
2022-08-02T07:51:01.186Z,100224.72
2022-08-02T07:53:50.015Z,100228.03
2022-08-02T07:56:16.711Z,100219.50
2022-08-02T07:58:44.381Z,100220.38
2022-08-02T08:01:12.127Z,100214.47
2022-08-02T08:03:41.094Z,100210.16
2022-08-02T08:06:08.959Z,100211.84
2022-08-02T08:08:36.794Z,100215.13
2022-08-02T08:11:04.521Z,100223.47
2022-08-02T08:13:34.893Z,100216.16
2022-08-02T08:16:02.990Z,100221.09
2022-08-02T08:18:30.777Z,100214.78
2022-08-02T08:21:00.547Z,100211.19
2022-08-02T08:23:28.517Z,100208.31
2022-08-02T08:25:56.328Z,100207.34
2022-08-02T08:28:23.988Z,100208.38
2022-08-02T08:30:51.616Z,100200.25
2022-08-02T08:33:19.257Z,100196.53
2022-08-02T08:35:47.029Z,100185.13
2022-08-02T08:38:16.231Z,100199.78
2022-08-02T08:40:44.729Z,100210.75
2022-08-02T08:43:14.004Z,100204.91
2022-08-02T08:45:42.099Z,100206.66
2022-08-02T08:48:15.525Z,100198.38
2022-08-02T08:51:01.766Z,100195.84
2022-08-02T08:53:36.364Z,100183.19
2022-08-02T08:56:05.397Z,100184.59
2022-08-02T08:58:33.028Z,100184.09
2022-08-02T09:01:01.081Z,100185.63
2022-08-02T09:03:28.733Z,100174.69
2022-08-02T09:06:02.490Z,100185.72
2022-08-02T09:08:34.092Z,100182.19
2022-08-02T09:11:01.733Z,100187.44
2022-08-02T09:13:37.956Z,100180.97
2022-08-02T09:16:14.834Z,100182.31
2022-08-02T09:18:45.377Z,100176.75
2022-08-02T09:21:14.743Z,100180.94
2022-08-02T09:23:45.413Z,100180.47
2022-08-02T09:26:14.780Z,100180.47
2022-08-02T09:28:44.861Z,100186.16
2022-08-02T09:31:14.578Z,100183.34
2022-08-02T09:33:44.805Z,100178.53
2022-08-02T09:36:13.905Z,100178.59
2022-08-02T09:38:54.283Z,100177.41
2022-08-02T09:41:23.626Z,100174.50
2022-08-02T09:44:04.677Z,100180.13
2022-08-02T09:46:38.227Z,100174.59
2022-08-02T09:49:09.258Z,100165.22
2022-08-02T09:51:39.208Z,100168.16
2022-08-02T09:54:11.683Z,100160.47
2022-08-02T09:56:45.232Z,100164.81
2022-08-02T09:59:14.416Z,100168.66
2022-08-02T10:01:49.052Z,100165.31
2022-08-02T10:04:22.592Z,100164.50
2022-08-02T10:06:53.056Z,100163.72
2022-08-02T10:09:23.326Z,100151.44
2022-08-02T10:11:52.981Z,100155.78
2022-08-02T10:14:21.588Z,100158.56
2022-08-02T10:16:49.261Z,100149.63
2022-08-02T10:19:17.337Z,100151.63
2022-08-02T10:21:47.093Z,100157.03
2022-08-02T10:24:16.599Z,100151.09
2022-08-02T10:26:47.561Z,100152.09
2022-08-02T10:29:18.132Z,100155.53
2022-08-02T10:31:51.053Z,100148.72
2022-08-02T10:34:22.768Z,100155.59
2022-08-02T10:36:52.173Z,100151.28
2022-08-02T10:39:19.882Z,100142.06
2022-08-02T10:41:51.531Z,100141.28
2022-08-02T10:44:27.358Z,100137.72
2022-08-02T10:47:24.737Z,100136.97
2022-08-02T10:49:54.389Z,100131.50
2022-08-02T10:52:22.776Z,100127.25
2022-08-02T10:54:56.831Z,100115.69
2022-08-02T10:57:27.714Z,100117.34
2022-08-02T10:59:57.446Z,100114.84
2022-08-02T11:02:41.381Z,100106.66
2022-08-02T11:05:17.131Z,100106.25
2022-08-02T11:07:47.899Z,100110.34
2022-08-02T11:10:35.895Z,100104.47
2022-08-02T11:13:09.356Z,100105.75
2022-08-02T11:16:05.370Z,100111.06
2022-08-02T11:19:11.975Z,100099.16
2022-08-02T11:21:41.007Z,100101.59
2022-08-02T11:24:29.418Z,100092.00
2022-08-02T11:26:58.407Z,100090.66
2022-08-02T11:29:38.529Z,100086.38
2022-08-02T11:32:07.524Z,100090.84
2022-08-02T11:34:36.863Z,100089.09
2022-08-02T11:37:07.568Z,100082.13
2022-08-02T11:39:35.366Z,100086.75
2022-08-02T11:42:03.138Z,100080.06
2022-08-02T11:44:40.798Z,100084.09
2022-08-02T11:47:08.987Z,100085.06
2022-08-02T11:49:37.914Z,100077.06
2022-08-02T11:52:11.154Z,100078.66
2022-08-02T11:54:40.612Z,100074.03
2022-08-02T11:57:17.059Z,100066.72
2022-08-02T11:59:48.758Z,100072.06
2022-08-02T12:02:18.753Z,100067.47
2022-08-02T12:04:53.456Z,100069.00
2022-08-02T12:07:34.275Z,100071.56
2022-08-02T12:10:03.775Z,100069.63
2022-08-02T12:12:31.453Z,100058.47
2022-08-02T12:14:59.169Z,100074.78
2022-08-02T12:17:47.897Z,100066.41
2022-08-02T12:20:17.123Z,100065.59
2022-08-02T12:22:46.236Z,100064.53
2022-08-02T12:25:34.708Z,100054.59
2022-08-02T12:28:18.136Z,100047.78
2022-08-02T12:30:54.277Z,100057.56
2022-08-02T12:33:23.554Z,100056.66
2022-08-02T12:35:51.390Z,100069.03
2022-08-02T12:38:20.660Z,100057.34
2022-08-02T12:40:49.028Z,100057.84
2022-08-02T12:43:22.221Z,100043.44
2022-08-02T12:45:52.977Z,100055.28
2022-08-02T12:48:37.534Z,100045.63
2022-08-02T12:51:23.356Z,100037.97
2022-08-02T12:53:59.671Z,100040.06
2022-08-02T12:56:30.189Z,100033.06
2022-08-02T12:58:58.489Z,100032.59
2022-08-02T13:01:28.435Z,100035.31
2022-08-02T13:04:10.419Z,100023.72
2022-08-02T13:06:43.838Z,100027.63
2022-08-02T13:09:15.858Z,100019.59
2022-08-02T13:11:44.377Z,100018.22
2022-08-02T13:14:12.824Z,100013.03
2022-08-02T13:16:42.267Z,100015.97
2022-08-02T13:19:10.289Z,100020.75
2022-08-02T13:21:39.848Z,100012.31
2022-08-02T13:24:23.261Z,100013.00
2022-08-02T13:26:57.299Z,100009.94
2022-08-02T13:29:25.736Z,100012.84
2022-08-02T13:31:53.591Z,100000.31
2022-08-02T13:34:21.237Z,99999.56
2022-08-02T13:36:48.941Z,99995.69
2022-08-02T13:39:16.597Z,99992.63
2022-08-02T13:41:44.239Z,99992.38
2022-08-02T13:44:13.237Z,99992.69
2022-08-02T13:46:45.455Z,99995.19
2022-08-02T13:49:18.385Z,99987.91
2022-08-02T13:51:47.147Z,99992.81
2022-08-02T13:54:15.373Z,99988.88
2022-08-02T13:56:43.097Z,99978.66
2022-08-02T13:59:26.283Z,99983.00
2022-08-02T14:02:00.589Z,99970.66
2022-08-02T14:04:29.677Z,99970.47
2022-08-02T14:06:58.926Z,99967.50
2022-08-02T14:09:27.536Z,99964.47
2022-08-02T14:11:55.225Z,99971.91
2022-08-02T14:14:22.837Z,99969.59
2022-08-02T14:16:50.482Z,99963.88
2022-08-02T14:19:21.679Z,99955.56
2022-08-02T14:21:49.805Z,99958.06
2022-08-02T14:24:18.395Z,99959.66
2022-08-02T14:26:46.448Z,99954.75
2022-08-02T14:29:14.180Z,99957.75
2022-08-02T14:31:44.721Z,99966.56
2022-08-02T14:34:13.336Z,99957.66
2022-08-02T14:36:42.390Z,99952.31
2022-08-02T14:39:10.439Z,99955.19
2022-08-02T14:41:59.838Z,99943.78
2022-08-02T14:44:26.057Z,99949.44
2022-08-02T14:46:53.697Z,99963.72
2022-08-02T14:49:25.107Z,99955.66
2022-08-02T14:51:56.155Z,99946.00
2022-08-02T14:54:27.677Z,99938.78
2022-08-02T14:56:58.450Z,99938.00
2022-08-02T14:59:26.381Z,99934.22
2022-08-02T15:01:54.376Z,99945.00
2022-08-02T15:04:22.121Z,99938.41
2022-08-02T15:06:49.825Z,99928.53
2022-08-02T15:09:18.845Z,99924.94
2022-08-02T15:11:47.876Z,99930.59
2022-08-02T15:14:20.275Z,99927.16
2022-08-02T15:16:58.061Z,99922.00
2022-08-02T15:19:44.994Z,99923.09
2022-08-02T15:22:16.657Z,99916.56
2022-08-02T15:24:49.162Z,99910.00
2022-08-02T15:27:17.388Z,99917.91
2022-08-02T15:29:46.514Z,99911.22
2022-08-02T15:32:14.994Z,99923.53
2022-08-02T15:34:42.793Z,99919.56
2022-08-02T15:37:10.457Z,99906.19
2022-08-02T15:39:38.156Z,99907.75
2022-08-02T15:42:07.338Z,99906.63
2022-08-02T15:44:34.981Z,99902.88
2022-08-02T15:47:02.683Z,99908.28
2022-08-02T15:49:30.375Z,99899.09
2022-08-02T15:51:58.383Z,99904.16
2022-08-02T15:54:26.062Z,99901.19
2022-08-02T15:56:53.841Z,99900.59
2022-08-02T15:59:22.847Z,99900.31
2022-08-02T16:01:50.560Z,99897.31
2022-08-02T16:04:18.758Z,99899.97
2022-08-02T16:06:46.470Z,99899.22
2022-08-02T16:09:14.102Z,99894.91
2022-08-02T16:11:41.805Z,99896.66
2022-08-02T16:14:09.504Z,99896.91
2022-08-02T16:16:40.133Z,99897.44
2022-08-02T16:19:46.350Z,99896.13
2022-08-02T16:21:56.150Z,99895.09
2022-08-02T16:24:23.868Z,99895.47
2022-08-02T16:26:51.484Z,99889.44
2022-08-02T16:29:19.730Z,99896.63
2022-08-02T16:31:49.179Z,99895.09
2022-08-02T16:34:17.301Z,99888.44
2022-08-02T16:36:45.567Z,99881.38
2022-08-02T16:39:13.503Z,99889.09
2022-08-02T16:41:50.861Z,99885.28
2022-08-02T16:44:26.859Z,99878.13
2022-08-02T16:47:00.647Z,99884.44
2022-08-02T16:50:04.955Z,99886.41
2022-08-02T16:52:19.176Z,99878.16
2022-08-02T16:54:49.415Z,99878.25
2022-08-02T16:57:19.794Z,99873.00
2022-08-02T16:59:57.657Z,99877.06
2022-08-02T17:02:27.924Z,99871.84
2022-08-02T17:04:56.613Z,99862.13
2022-08-02T17:08:06.312Z,99863.84
2022-08-02T17:10:12.615Z,99867.66
2022-08-02T17:12:41.017Z,99864.00
2022-08-02T17:16:01.025Z,99864.47
2022-08-02T17:18:00.511Z,99863.50
2022-08-02T17:20:28.831Z,99863.44
2022-08-02T17:23:00.641Z,99867.88
2022-08-02T17:25:28.727Z,99867.41
2022-08-02T17:27:59.724Z,99868.72
2022-08-02T17:30:28.909Z,99870.84
2022-08-02T17:32:57.968Z,99865.63
2022-08-02T17:35:43.370Z,99861.03
2022-08-02T17:38:18.176Z,99865.56
2022-08-02T17:40:54.595Z,99867.44
2022-08-02T17:43:22.222Z,99870.53
2022-08-02T17:46:00.124Z,99860.38
2022-08-02T17:48:55.026Z,99867.84
2022-08-02T17:52:15.314Z,99866.69
2022-08-02T17:54:12.831Z,99863.84
2022-08-02T17:56:42.342Z,99866.03
2022-08-02T17:59:12.228Z,99868.66
2022-08-02T18:01:53.078Z,99863.28
2022-08-02T18:04:27.757Z,99864.53
2022-08-02T18:06:59.068Z,99867.97
2022-08-02T18:09:32.485Z,99877.84
2022-08-02T18:12:02.297Z,99872.13
2022-08-02T18:14:30.996Z,99874.75
2022-08-02T18:16:58.677Z,99879.31
2022-08-02T18:19:33.161Z,99879.16
2022-08-02T18:22:15.997Z,99874.81
2022-08-02T18:24:44.932Z,99875.53
2022-08-02T18:27:12.923Z,99883.03
2022-08-02T18:29:40.631Z,99871.75
2022-08-02T18:32:11.692Z,99875.50
2022-08-02T18:34:39.887Z,99874.41
2022-08-02T18:37:08.018Z,99873.47
2022-08-02T18:39:51.113Z,99875.34
2022-08-02T18:42:19.312Z,99879.69
2022-08-02T18:44:46.953Z,99881.72
2022-08-02T18:47:14.600Z,99891.34
2022-08-02T18:49:45.970Z,99885.00
2022-08-02T18:52:15.119Z,99889.44
2022-08-02T18:54:44.479Z,99890.75
2022-08-02T18:58:19.300Z,99887.97
2022-08-02T19:00:00.669Z,99881.63
2022-08-02T19:02:28.858Z,99884.91
2022-08-02T19:04:57.047Z,99888.16
2022-08-02T19:07:25.205Z,99884.75
2022-08-02T19:10:14.130Z,99894.06
2022-08-02T19:12:41.767Z,99890.28
2022-08-02T19:15:16.917Z,99887.69
2022-08-02T19:17:53.903Z,99888.66
2022-08-02T19:20:23.951Z,99889.75
2022-08-02T19:22:53.785Z,99896.00
2022-08-02T19:25:27.818Z,99893.00
2022-08-02T19:27:56.777Z,99895.47
2022-08-02T19:30:25.644Z,99895.09
2022-08-02T19:32:59.291Z,99896.91
2022-08-02T19:35:34.475Z,99902.09
2022-08-02T19:38:09.621Z,99903.72
2022-08-02T19:40:41.584Z,99909.50
2022-08-02T19:44:26.856Z,99909.91
2022-08-02T19:45:57.770Z,99910.59
2022-08-02T19:48:27.296Z,99923.22
2022-08-02T19:51:00.866Z,99916.66
2022-08-02T19:53:47.859Z,99911.03
2022-08-02T19:56:24.863Z,99921.34
2022-08-02T19:59:13.198Z,99916.16
2022-08-02T20:01:48.832Z,99918.25
2022-08-02T20:04:23.253Z,99923.06
2022-08-02T20:07:04.693Z,99931.38
2022-08-02T20:09:33.369Z,99929.28
2022-08-02T20:12:16.710Z,99925.59
2022-08-02T20:14:51.094Z,99929.50
2022-08-02T20:17:20.850Z,99936.41
2022-08-02T20:19:48.805Z,99931.03
2022-08-02T20:22:16.936Z,99938.47
2022-08-02T20:24:46.837Z,99936.00
2022-08-02T20:27:23.823Z,99930.00
2022-08-02T20:29:52.717Z,99933.66
2022-08-02T20:32:23.456Z,99928.44
2022-08-02T20:34:52.462Z,99933.84
2022-08-02T20:37:59.800Z,99933.94
2022-08-02T20:40:10.246Z,99928.78
2022-08-02T20:42:47.542Z,99939.56
2022-08-02T20:45:15.930Z,99927.59
2022-08-02T20:47:43.592Z,99935.81
2022-08-02T20:50:35.165Z,99930.84
2022-08-02T20:53:04.014Z,99938.31
2022-08-02T20:55:32.490Z,99935.91
2022-08-02T20:58:02.747Z,99939.53
2022-08-02T21:00:31.417Z,99941.53
2022-08-02T21:02:59.340Z,99944.25
2022-08-02T21:05:54.568Z,99941.03
2022-08-02T21:08:15.566Z,99936.09
2022-08-02T21:10:52.230Z,99937.63
2022-08-02T21:13:24.113Z,99935.13
2022-08-02T21:15:53.172Z,99934.34
2022-08-02T21:18:34.858Z,99938.81
2022-08-02T21:21:09.219Z,99934.53
2022-08-02T21:23:37.545Z,99938.06
2022-08-02T21:26:06.401Z,99936.44
2022-08-02T21:28:44.859Z,99939.97
2022-08-02T21:31:14.521Z,99934.72
2022-08-02T21:33:57.544Z,99929.69
2022-08-02T21:36:30.783Z,99940.00
2022-08-02T21:39:05.432Z,99937.44
2022-08-02T21:41:38.463Z,99928.78
2022-08-02T21:44:10.367Z,99934.09
2022-08-02T21:46:38.077Z,99935.03
2022-08-02T21:49:06.372Z,99936.91
2022-08-02T21:51:34.522Z,99940.56
2022-08-02T21:54:16.858Z,99939.94
2022-08-02T21:56:48.445Z,99952.66
2022-08-02T21:59:18.035Z,99947.53
2022-08-02T22:01:53.795Z,99936.28
2022-08-02T22:04:22.192Z,99946.16
2022-08-02T22:06:49.898Z,99949.06
2022-08-02T22:09:43.983Z,99950.97
2022-08-02T22:12:12.556Z,99947.72
2022-08-02T22:14:49.338Z,99946.09
2022-08-02T22:17:21.324Z,99947.88
2022-08-02T22:20:12.254Z,99946.31
2022-08-02T22:22:40.365Z,99953.44
2022-08-02T22:25:10.110Z,99953.66
2022-08-02T22:28:34.920Z,99957.47
2022-08-02T22:30:38.689Z,99958.41
2022-08-02T22:33:33.218Z,99971.75
2022-08-02T22:36:02.162Z,99960.41
2022-08-02T22:38:30.138Z,99957.88
2022-08-02T22:40:57.769Z,99961.41
2022-08-02T22:43:25.377Z,99966.75
2022-08-02T22:46:00.352Z,99970.16
2022-08-02T22:48:28.011Z,99970.25
2022-08-02T22:50:56.437Z,99963.25
2022-08-02T22:53:35.407Z,99963.44
2022-08-02T22:56:03.554Z,99960.19
2022-08-02T22:58:32.368Z,99960.19
2022-08-02T23:01:01.775Z,99967.28
2022-08-02T23:03:29.599Z,99964.78
2022-08-02T23:05:57.784Z,99966.59
2022-08-02T23:08:25.496Z,99957.75
2022-08-02T23:10:53.284Z,99956.81
2022-08-02T23:13:23.290Z,99960.50
2022-08-02T23:16:11.489Z,99968.47
2022-08-02T23:18:58.106Z,99971.47
2022-08-02T23:21:27.599Z,99971.72
2022-08-02T23:24:14.040Z,99967.97
2022-08-02T23:26:41.672Z,99975.13
2022-08-02T23:29:09.341Z,99972.66
2022-08-02T23:31:38.444Z,99975.22
2022-08-02T23:34:07.504Z,99971.81
2022-08-02T23:36:35.149Z,99965.72
2022-08-02T23:39:02.786Z,99974.47
2022-08-02T23:41:30.430Z,99970.25
2022-08-02T23:44:13.114Z,99980.94
2022-08-02T23:46:42.909Z,99977.44
2022-08-02T23:49:13.513Z,99979.19
2022-08-02T23:51:41.246Z,99977.31
2022-08-02T23:54:09.220Z,99981.66
2022-08-02T23:56:36.926Z,99975.59
2022-08-02T23:59:05.185Z,99979.03
